Time;durP1;ratioP1;P1;durP2;ratioP2;P2;SDS_P1;SDS_P2;PMS_P1;PMS_P2;Temp;Humidity;BMP_temperature;BMP_pressure;BME280_temperature;BME280_humidity;BME280_pressure;Samples;Min_cycle;Max_cycle;Signal;HPM_P1;HPM_P2
2023/04/11 00:01:28;;;;;;;19.95;8.43;;;;;;;10.23;76.87;99969.97;1741201;82;21602;-80
2023/04/11 00:04:37;;;;;;;18.50;8.93;;;;;;;10.28;76.94;99970.83;1742638;82;21188;-90
2023/04/11 00:07:43;;;;;;;15.00;8.58;;;;;;;10.11;77.71;99963.73;1742752;82;21170;-91
2023/04/11 00:10:50;;;;;;;21.25;9.05;;;;;;;10.09;78.23;99965.81;1741422;82;21233;-80
2023/04/11 00:13:57;;;;;;;20.35;8.63;;;;;;;10.26;77.63;99966.06;1742394;82;21197;-91
2023/04/11 00:17:04;;;;;;;22.10;8.53;;;;;;;10.30;77.77;99975.58;1742834;82;21159;-83
2023/04/11 00:20:12;;;;;;;22.75;8.23;;;;;;;10.32;77.75;99972.16;1741969;82;21185;-91
2023/04/11 00:23:18;;;;;;;16.48;8.43;;;;;;;10.44;77.64;99967.09;1742594;82;21145;-90
2023/04/11 00:26:23;;;;;;;17.77;8.05;;;;;;;10.23;78.37;99973.22;1742569;82;21189;-80
2023/04/11 00:29:32;;;;;;;17.17;8.35;;;;;;;10.30;78.49;99966.01;1742201;82;21229;-79
2023/04/11 00:32:38;;;;;;;16.45;8.30;;;;;;;10.20;79.00;99967.59;1741652;82;21178;-88
2023/04/11 00:35:46;;;;;;;21.80;8.03;;;;;;;10.31;79.22;99955.95;1741280;82;21185;-80
2023/04/11 00:38:53;;;;;;;18.57;7.95;;;;;;;10.42;79.08;99959.61;1742634;82;21173;-90
2023/04/11 00:41:59;;;;;;;14.33;7.65;;;;;;;10.35;79.52;99955.41;1742199;82;21205;-79
2023/04/11 00:44:51;;;;;;;17.45;7.78;;;;;;;10.26;80.15;99957.87;1742298;82;21197;-81
2023/04/11 00:47:57;;;;;;;14.03;8.30;;;;;;;10.32;80.10;99946.19;1742552;82;21225;-88
2023/04/11 00:51:03;;;;;;;13.08;6.67;;;;;;;10.26;80.35;99948.30;1741193;82;21177;-89
2023/04/11 00:54:10;;;;;;;17.52;8.03;;;;;;;10.10;81.12;99949.74;1741231;82;21182;-80
2023/04/11 00:57:17;;;;;;;16.87;7.45;;;;;;;10.02;81.93;99947.94;1742685;82;21217;-80
2023/04/11 01:00:23;;;;;;;14.50;7.58;;;;;;;10.16;81.64;99944.91;1741832;82;21257;-91
2023/04/11 01:03:29;;;;;;;15.15;7.35;;;;;;;10.20;81.56;99948.98;1707855;82;21226;-90
2023/04/11 01:06:35;;;;;;;20.75;7.37;;;;;;;10.27;81.36;99937.69;1712656;83;21258;-89
2023/04/11 01:09:42;;;;;;;16.02;7.67;;;;;;;10.35;81.27;99942.22;1726498;83;21223;-80
2023/04/11 01:12:48;;;;;;;15.10;7.50;;;;;;;10.32;81.22;99931.16;1726190;83;21236;-90
2023/04/11 01:15:54;;;;;;;14.90;7.90;;;;;;;10.32;81.27;99932.52;1725614;83;21221;-89
2023/04/11 01:18:59;;;;;;;16.80;7.95;;;;;;;10.37;81.17;99924.62;1726871;83;21169;-90
2023/04/11 01:22:05;;;;;;;19.00;6.97;;;;;;;10.34;81.04;99933.17;1726855;83;21208;-90
2023/04/11 01:25:11;;;;;;;16.93;6.87;;;;;;;10.41;81.04;99925.95;1726276;83;21204;-91
2023/04/11 01:28:16;;;;;;;16.60;7.03;;;;;;;10.47;81.28;99921.62;1727109;83;21482;-90
2023/04/11 01:31:23;;;;;;;18.52;7.08;;;;;;;10.39;81.55;99911.59;1730790;81;21173;-80
2023/04/11 01:34:28;;;;;;;17.50;7.70;;;;;;;10.52;81.68;99921.06;1760342;81;21247;-89
2023/04/11 01:37:34;;;;;;;14.80;7.17;;;;;;;10.45;82.19;99923.70;1760286;81;21864;-80
2023/04/11 01:40:40;;;;;;;14.53;7.25;;;;;;;10.47;82.16;99929.83;1760253;81;21189;-81
2023/04/11 01:43:46;;;;;;;11.48;6.87;;;;;;;10.59;81.67;99918.78;1759074;81;21180;-88
2023/04/11 01:46:53;;;;;;;20.32;7.37;;;;;;;10.33;82.53;99919.18;1760060;81;21157;-81
2023/04/11 01:50:00;;;;;;;17.85;6.62;;;;;;;10.33;84.11;99923.80;1759268;81;21227;-80
2023/04/11 01:53:01;;;;;;;12.75;7.50;;;;;;;10.34;85.08;99922.76;1760524;81;21710;-89
2023/04/11 01:56:06;;;;;;;15.20;7.08;;;;;;;10.37;85.12;99916.94;1759387;81;21180;-92
2023/04/11 01:59:13;;;;;;;14.58;6.90;;;;;;;10.40;85.04;99920.68;1760073;81;21256;-92
2023/04/11 02:02:18;;;;;;;12.00;7.08;;;;;;;10.44;84.88;99911.05;1743555;81;21821;-91
2023/04/11 02:05:25;;;;;;;16.15;6.92;;;;;;;10.29;85.55;99913.74;1726102;83;21275;-91
2023/04/11 02:08:31;;;;;;;23.83;7.37;;;;;;;10.24;85.52;99906.09;1718536;83;21260;-80
2023/04/11 02:11:38;;;;;;;17.05;6.37;;;;;;;10.37;85.04;99901.37;1712557;83;21213;-80
2023/04/11 02:14:51;;;;;;;12.40;6.58;;;;;;;10.34;84.95;99894.91;1711517;83;21769;-79
2023/04/11 02:17:59;;;;;;;19.30;7.45;;;;;;;10.38;84.52;99906.33;1713150;82;21179;-87
2023/04/11 02:21:05;;;;;;;19.40;6.58;;;;;;;10.34;84.65;99897.63;1712122;83;21218;-80
2023/04/11 02:24:13;;;;;;;18.20;6.92;;;;;;;10.32;84.88;99889.30;1711776;83;21194;-80
2023/04/11 02:27:19;;;;;;;16.32;6.10;;;;;;;10.31;84.61;99902.64;1711934;83;21262;-80
2023/04/11 02:30:25;;;;;;;12.10;6.45;;;;;;;10.21;85.05;99894.16;1711960;83;21780;-81
2023/04/11 02:33:32;;;;;;;12.20;6.22;;;;;;;10.26;84.69;99887.28;1713330;83;21261;-90
2023/04/11 02:36:37;;;;;;;11.50;6.30;;;;;;;10.70;82.84;99896.95;1713587;83;21179;-91
2023/04/11 02:39:35;;;;;;;12.68;6.45;;;;;;;10.40;83.37;99894.19;1713264;83;21588;-80
2023/04/11 02:42:28;;;;;;;23.75;6.87;;;;;;;10.38;83.05;99899.48;1712056;83;21809;-90
2023/04/11 02:45:35;;;;;;;15.05;7.45;;;;;;;10.33;84.09;99893.73;1712818;83;21245;-91
2023/04/11 02:48:40;;;;;;;11.15;6.65;;;;;;;10.59;83.84;99894.69;1713587;83;21430;-82
2023/04/11 02:51:40;;;;;;;15.40;7.53;;;;;;;10.34;84.70;99887.22;1712042;83;21531;-90
2023/04/11 02:54:32;;;;;;;16.07;7.12;;;;;;;10.42;84.28;99883.90;1770115;81;21196;-80
2023/04/11 02:57:19;;;;;;;10.50;6.30;;;;;;;10.74;83.33;99881.88;1770666;81;21170;-91
2023/04/11 03:00:12;;;;;;;18.40;6.95;;;;;;;10.56;83.21;99882.75;1770675;81;21244;-89
2023/04/11 03:03:02;;;;;;;13.28;6.40;;;;;;;10.62;82.90;99879.25;1760196;79;21242;-89
2023/04/11 03:05:56;;;;;;;17.60;7.00;;;;;;;10.70;81.89;99876.44;1759825;81;21227;-80
2023/04/11 03:08:51;;;;;;;14.78;6.47;;;;;;;10.56;82.30;99875.39;1762015;80;21213;-80
2023/04/11 03:11:58;;;;;;;15.03;6.47;;;;;;;10.82;81.46;99872.21;1759743;80;21223;-90
2023/04/11 03:15:07;;;;;;;10.30;6.12;;;;;;;10.92;80.28;99878.25;1759568;81;21199;-90
2023/04/11 03:18:14;;;;;;;11.88;6.33;;;;;;;11.08;79.79;99876.34;1759251;80;21223;-80
2023/04/11 03:21:20;;;;;;;17.17;6.75;;;;;;;10.92;80.17;99872.77;1760932;81;21878;-83
2023/04/11 03:24:26;;;;;;;14.58;6.60;;;;;;;10.83;80.60;99879.37;1760409;81;21728;-91
2023/04/11 03:27:33;;;;;;;12.93;6.83;;;;;;;10.80;80.33;99874.27;1760789;81;21191;-91
2023/04/11 03:30:39;;;;;;;17.27;7.03;;;;;;;10.70;81.39;99882.76;1759546;81;21219;-79
2023/04/11 03:33:47;;;;;;;13.15;6.53;;;;;;;10.69;81.52;99887.05;1759239;81;21721;-92
2023/04/11 03:36:53;;;;;;;19.45;6.80;;;;;;;10.82;80.58;99874.07;1760733;81;21171;-88
2023/04/11 03:40:01;;;;;;;11.88;6.40;;;;;;;11.06;80.19;99880.65;1760268;81;21235;-80
2023/04/11 03:43:08;;;;;;;12.43;6.30;;;;;;;10.95;80.19;99881.11;1759427;80;21774;-87
2023/04/11 03:46:15;;;;;;;18.77;7.72;;;;;;;10.92;79.73;99876.03;1759231;81;21183;-88
2023/04/11 03:49:21;;;;;;;13.80;7.20;;;;;;;10.83;79.81;99882.11;1760564;81;21246;-80
2023/04/11 03:52:27;;;;;;;12.82;6.75;;;;;;;10.92;79.04;99887.82;1760737;81;21159;-88
2023/04/11 03:55:34;;;;;;;20.17;6.95;;;;;;;10.77;79.23;99875.16;1759332;81;21199;-89
2023/04/11 03:58:42;;;;;;;23.42;6.75;;;;;;;10.67;79.37;99874.07;1759315;81;21151;-80
2023/04/11 04:01:50;;;;;;;12.85;6.15;;;;;;;10.79;78.76;99872.58;1760718;81;21866;-79
2023/04/11 04:04:59;;;;;;;10.93;6.25;;;;;;;10.67;78.89;99868.59;1760152;81;21182;-80
2023/04/11 04:08:06;;;;;;;9.80;5.97;;;;;;;10.79;78.36;99874.47;1759431;80;21175;-79
2023/04/11 04:11:12;;;;;;;21.00;6.97;;;;;;;10.83;77.66;99871.17;1773257;80;21205;-88
2023/04/11 04:14:19;;;;;;;13.08;6.03;;;;;;;10.99;77.35;99866.02;1785438;80;21223;-79
2023/04/11 04:17:24;;;;;;;23.92;6.80;;;;;;;11.04;76.76;99872.28;1785501;80;21201;-78
2023/04/11 04:20:31;;;;;;;14.80;7.00;;;;;;;10.97;76.59;99861.26;1784572;80;21415;-85
2023/04/11 04:23:31;;;;;;;13.32;6.62;;;;;;;11.02;76.51;99862.91;1784172;80;21178;-88
2023/04/11 04:26:30;;;;;;;17.50;7.83;;;;;;;11.04;76.13;99866.28;1784185;79;21288;-78
2023/04/11 04:29:38;;;;;;;15.53;7.28;;;;;;;11.06;75.86;99860.64;1784262;80;21222;-88
2023/04/11 04:32:46;;;;;;;20.80;6.85;;;;;;;11.14;75.41;99860.52;1784239;80;21763;-79
2023/04/11 04:35:58;;;;;;;15.50;6.37;;;;;;;11.17;75.05;99858.78;1784324;80;21225;-89
2023/04/11 04:39:04;;;;;;;14.03;6.15;;;;;;;11.12;74.63;99857.13;1784389;80;21739;-89
2023/04/11 04:42:14;;;;;;;13.65;6.22;;;;;;;10.70;75.10;99858.14;1785702;80;21170;-79
2023/04/11 04:45:10;;;;;;;16.00;6.20;;;;;;;10.39;77.50;99850.08;1784075;80;21246;-80
2023/04/11 04:48:16;;;;;;;18.17;6.80;;;;;;;10.18;78.35;99845.31;1785693;80;21182;-80
2023/04/11 04:51:22;;;;;;;14.25;6.55;;;;;;;10.20;78.91;99846.48;1785613;80;21154;-87
2023/04/11 04:54:30;;;;;;;18.07;6.97;;;;;;;10.31;78.34;99840.63;1784781;80;21675;-81
2023/04/11 04:57:37;;;;;;;18.67;6.47;;;;;;;10.35;78.23;99851.52;1785616;80;21154;-90
2023/04/11 05:00:43;;;;;;;15.70;6.15;;;;;;;10.57;77.30;99842.05;1784433;80;21793;-90
2023/04/11 05:03:57;;;;;;;18.45;6.22;;;;;;;10.30;77.28;99852.56;1786122;80;21818;-90
2023/04/11 05:07:03;;;;;;;12.98;6.42;;;;;;;10.31;77.61;99858.91;1796829;77;21202;-79
2023/04/11 05:10:12;;;;;;;17.77;7.05;;;;;;;10.33;77.31;99837.17;1809400;78;21259;-89
2023/04/11 05:13:18;;;;;;;14.38;5.67;;;;;;;10.46;75.90;99841.48;1781989;78;21232;-89
2023/04/11 05:16:25;;;;;;;17.87;6.65;;;;;;;10.57;74.72;99834.69;1795568;78;21184;-89
2023/04/11 05:19:32;;;;;;;13.68;5.47;;;;;;;10.49;74.72;99839.75;1825557;78;21205;-79
2023/04/11 05:22:38;;;;;;;28.27;5.83;;;;;;;10.43;75.32;99841.00;1792640;78;21142;-79
2023/04/11 05:25:44;;;;;;;11.95;5.87;;;;;;;10.50;74.31;99821.45;1792380;79;21727;-79
2023/04/11 05:28:50;;;;;;;13.98;6.03;;;;;;;10.64;73.56;99834.80;1791006;79;21212;-80
2023/04/11 05:31:58;;;;;;;13.15;5.78;;;;;;;10.65;73.33;99844.70;1785434;79;21177;-91
2023/04/11 05:35:03;;;;;;;17.62;6.37;;;;;;;10.53;73.62;99821.58;1798013;79;21222;-90
2023/04/11 05:38:04;;;;;;;15.38;5.33;;;;;;;10.66;73.69;99820.41;1796101;79;21434;-79
2023/04/11 05:41:04;;;;;;;21.42;6.55;;;;;;;10.88;72.89;99822.72;1796878;78;21233;-90
2023/04/11 05:44:10;;;;;;;16.35;5.60;;;;;;;10.85;72.84;99814.36;1791547;79;21460;-80
2023/04/11 05:47:15;;;;;;;18.35;5.47;;;;;;;10.89;72.15;99818.94;1791436;79;21192;-89
2023/04/11 05:50:21;;;;;;;17.52;5.65;;;;;;;10.94;72.81;99813.74;1759430;81;21631;-90
2023/04/11 05:53:27;;;;;;;13.95;5.50;;;;;;;11.09;72.10;99811.82;1799809;78;21567;-80
2023/04/11 05:56:34;;;;;;;15.88;5.35;;;;;;;11.06;72.24;99813.59;1799304;78;21144;-79
2023/04/11 05:59:42;;;;;;;14.75;6.22;;;;;;;11.16;71.86;99813.29;1790121;79;21189;-81
2023/04/11 06:02:49;;;;;;;12.60;5.62;;;;;;;11.31;71.17;99808.62;1785944;79;21708;-79
2023/04/11 06:05:55;;;;;;;11.43;5.28;;;;;;;11.47;71.21;99815.20;1800135;78;21733;-81
2023/04/11 06:09:02;;;;;;;12.93;5.42;;;;;;;11.60;69.41;99811.77;1787156;78;21172;-91
2023/04/11 06:12:09;;;;;;;12.85;5.42;;;;;;;11.67;70.02;99802.27;1792966;78;21789;-91
2023/04/11 06:15:17;;;;;;;15.60;5.08;;;;;;;11.89;68.20;99809.97;1796775;78;21718;-89
2023/04/11 06:18:23;;;;;;;11.88;5.30;;;;;;;11.99;68.19;99798.14;1791818;78;21689;-89
2023/04/11 06:21:31;;;;;;;19.17;5.60;;;;;;;12.17;67.59;99797.66;1797031;78;21604;-80
2023/04/11 06:24:45;;;;;;;9.50;4.87;;;;;;;12.16;66.64;99805.56;1801284;79;21230;-89
2023/04/11 06:27:51;;;;;;;17.32;5.15;;;;;;;12.38;66.49;99789.39;1796742;78;21178;-79
2023/04/11 06:30:58;;;;;;;10.03;4.72;;;;;;;12.52;66.49;99794.44;1795545;78;21770;-79
2023/04/11 06:34:04;;;;;;;17.05;5.40;;;;;;;12.34;66.36;99803.70;1802282;78;21606;-80
2023/04/11 06:37:10;;;;;;;9.25;4.65;;;;;;;12.49;66.30;99792.09;1789273;78;21137;-79
2023/04/11 06:40:19;;;;;;;10.05;5.00;;;;;;;12.72;65.15;99784.95;1802147;79;21181;-79
2023/04/11 06:43:25;;;;;;;10.72;4.70;;;;;;;12.74;65.22;99782.83;1797928;79;21232;-80
2023/04/11 06:46:31;;;;;;;15.30;5.53;;;;;;;12.75;65.51;99789.52;1790171;78;21217;-80
2023/04/11 06:49:37;;;;;;;11.22;4.75;;;;;;;12.61;65.94;99782.26;1796128;78;21176;-91
2023/04/11 06:52:44;;;;;;;20.35;4.87;;;;;;;12.74;65.19;99775.97;1789088;79;21756;-91
2023/04/11 06:55:55;;;;;;;8.83;4.55;;;;;;;12.95;64.17;99789.60;1789518;78;21167;-81
2023/04/11 06:59:02;;;;;;;19.00;5.70;;;;;;;13.20;63.66;99769.30;1792985;78;21214;-91
2023/04/11 07:02:01;;;;;;;13.88;4.95;;;;;;;13.28;65.24;99772.44;1801015;78;21181;-83
2023/04/11 07:05:10;;;;;;;12.55;4.40;;;;;;;13.13;64.39;99759.38;1803142;78;21179;-91
2023/04/11 07:08:16;;;;;;;13.98;5.42;;;;;;;13.19;63.46;99757.16;1802513;78;21158;-91
2023/04/11 07:11:22;;;;;;;16.73;4.87;;;;;;;13.41;63.83;99765.61;1831467;78;21718;-91
2023/04/11 07:14:28;;;;;;;11.08;4.75;;;;;;;13.48;62.32;99759.58;1740785;81;21256;-91
2023/04/11 07:17:34;;;;;;;16.93;4.67;;;;;;;13.43;63.69;99757.15;1732067;81;21173;-91
2023/04/11 07:20:41;;;;;;;10.00;4.75;;;;;;;13.54;63.67;99748.28;1733354;81;21661;-91
2023/04/11 07:23:40;;;;;;;12.20;4.50;;;;;;;13.65;64.15;99741.34;1742194;81;21154;-90
2023/04/11 07:26:37;;;;;;;15.75;4.62;;;;;;;13.67;63.70;99749.67;1745515;81;21253;-81
2023/04/11 07:29:41;;;;;;;14.90;4.45;;;;;;;13.85;63.98;99733.94;1734731;81;21793;-80
2023/04/11 07:32:34;;;;;;;9.87;4.43;;;;;;;14.04;62.17;99733.61;1747813;81;21213;-89
2023/04/11 07:35:40;;;;;;;12.88;5.42;;;;;;;14.22;62.74;99738.47;1742483;82;21198;-90
2023/04/11 07:38:46;;;;;;;10.63;4.28;;;;;;;14.17;63.53;99712.98;1763025;80;21220;-90
2023/04/11 07:41:53;;;;;;;15.63;4.65;;;;;;;14.23;62.29;99729.98;1763919;80;21187;-91
2023/04/11 07:44:59;;;;;;;15.23;5.12;;;;;;;14.42;61.86;99712.28;1768048;80;21200;-80
2023/04/11 07:48:06;;;;;;;15.00;4.50;;;;;;;14.60;61.41;99726.77;1769885;80;21203;-80
2023/04/11 07:51:12;;;;;;;11.75;4.92;;;;;;;14.74;60.42;99703.09;1761491;80;21190;-91
2023/04/11 07:54:19;;;;;;;12.53;5.05;;;;;;;14.72;60.71;99714.00;1759359;80;21242;-81
2023/04/11 07:57:24;;;;;;;16.42;4.85;;;;;;;14.82;61.76;99730.93;1771334;80;21196;-90
2023/04/11 08:00:32;;;;;;;9.75;4.50;;;;;;;14.92;61.76;99712.03;1745153;81;22238;-80
2023/04/11 08:03:40;;;;;;;12.20;4.58;;;;;;;15.11;62.59;99707.48;1737653;81;21169;-80
2023/04/11 08:06:46;;;;;;;11.38;3.98;;;;;;;15.36;60.76;99708.07;1749682;80;21160;-80
2023/04/11 08:09:52;;;;;;;14.65;4.50;;;;;;;15.45;60.13;99697.09;1748844;80;21809;-80
2023/04/11 08:13:00;;;;;;;10.70;4.50;;;;;;;15.73;59.20;99691.19;1745029;80;21184;-90
2023/04/11 08:16:06;;;;;;;11.88;4.37;;;;;;;15.75;59.08;99695.39;1734017;81;21155;-91
2023/04/11 08:19:14;;;;;;;11.53;3.95;;;;;;;15.97;57.52;99722.05;1723594;78;21228;-81
2023/04/11 08:22:14;;;;;;;17.65;4.10;;;;;;;15.70;56.13;99695.76;1723847;82;21153;-80
2023/04/11 08:25:21;;;;;;;9.45;3.40;;;;;;;15.66;56.00;99695.89;1716758;78;21194;-81
2023/04/11 08:28:27;;;;;;;11.10;4.08;;;;;;;15.61;55.72;99693.77;1716277;82;21536;-79
2023/04/11 08:31:32;;;;;;;18.10;4.22;;;;;;;15.66;56.41;99694.52;1715993;83;21217;-81
2023/04/11 08:34:41;;;;;;;15.18;3.92;;;;;;;15.49;58.22;99692.29;1717822;83;21574;-83
2023/04/11 08:37:48;;;;;;;11.07;4.10;;;;;;;15.59;57.95;99680.22;1716661;82;21539;-90
2023/04/11 08:40:48;;;;;;;16.12;3.87;;;;;;;15.86;56.70;99675.06;1723887;82;21241;-90
2023/04/11 08:43:53;;;;;;;11.48;4.08;;;;;;;15.96;56.47;99680.37;1720327;82;21174;-81
2023/04/11 08:46:58;;;;;;;12.28;4.08;;;;;;;16.27;57.44;99665.60;1723155;83;21166;-81
2023/04/11 08:50:04;;;;;;;16.62;4.05;;;;;;;16.19;57.13;99668.69;1717163;83;21189;-90
2023/04/11 08:53:10;;;;;;;12.05;3.70;;;;;;;16.20;53.66;99659.33;1727289;82;21151;-90
2023/04/11 08:56:23;;;;;;;8.20;4.00;;;;;;;16.19;54.59;99651.29;1720256;83;21158;-81
2023/04/11 08:59:24;;;;;;;8.90;3.67;;;;;;;16.15;53.43;99648.14;1685803;85;21608;-81
2023/04/11 09:02:30;;;;;;;12.73;3.55;;;;;;;16.29;53.17;99637.26;1687343;85;21253;-90
2023/04/11 09:05:39;;;;;;;15.53;4.55;;;;;;;16.42;52.71;99621.09;1721457;82;21758;-80
2023/04/11 09:08:47;;;;;;;12.60;4.85;;;;;;;16.56;51.40;99635.54;1722452;82;21182;-89
2023/04/11 09:12:02;;;;;;;12.25;5.15;;;;;;;16.56;53.47;99629.51;1721905;82;21177;-90
2023/04/11 09:15:12;;;;;;;16.55;4.12;;;;;;;16.56;50.95;99623.98;1716281;82;21233;-81
2023/04/11 09:18:20;;;;;;;15.35;4.75;;;;;;;16.49;50.73;99609.95;1722417;83;21188;-88
2023/04/11 09:21:28;;;;;;;14.00;3.55;;;;;;;16.45;50.57;99623.36;1723902;82;21216;-80
2023/04/11 09:24:35;;;;;;;13.88;4.03;;;;;;;16.34;51.41;99600.16;1717174;83;21209;-81
2023/04/11 09:27:41;;;;;;;13.90;4.10;;;;;;;16.34;50.70;99591.03;1718024;82;21190;-81
2023/04/11 09:30:51;;;;;;;11.70;4.37;;;;;;;16.33;52.93;99594.88;1717103;82;21731;-81
2023/04/11 09:34:01;;;;;;;9.85;4.58;;;;;;;16.48;51.83;99599.99;1725140;82;21166;-90
2023/04/11 09:37:07;;;;;;;10.90;3.92;;;;;;;16.49;51.98;99591.47;1724556;82;21751;-83
2023/04/11 09:40:13;;;;;;;12.80;4.62;;;;;;;16.45;50.88;99580.58;1720479;82;21220;-90
2023/04/11 09:43:19;;;;;;;9.33;4.22;;;;;;;16.39;50.14;99564.96;1716393;81;21438;-81
2023/04/11 09:46:24;;;;;;;17.30;4.12;;;;;;;16.44;49.89;99578.06;1718571;82;21205;-90
2023/04/11 09:49:33;;;;;;;8.45;4.15;;;;;;;16.46;50.20;99558.80;1717094;82;21829;-89
2023/04/11 09:52:39;;;;;;;18.90;4.75;;;;;;;16.59;51.09;99563.30;1722695;82;21672;-80
2023/04/11 09:55:46;;;;;;;14.70;3.70;;;;;;;16.69;49.91;99561.36;1721507;82;21169;-89
2023/04/11 09:59:06;;;;;;;14.23;4.28;;;;;;;16.67;49.48;99553.33;1724033;83;21170;-80
2023/04/11 10:02:13;;;;;;;11.38;4.20;;;;;;;16.67;49.17;99558.01;1677152;83;21227;-84
2023/04/11 10:05:20;;;;;;;13.00;4.62;;;;;;;16.97;50.10;99547.80;1686485;83;22291;-82
2023/04/11 10:08:35;;;;;;;15.30;4.17;;;;;;;16.98;50.03;99564.66;1683426;83;21203;-83
2023/04/11 10:11:41;;;;;;;13.60;4.28;;;;;;;17.14;47.74;99551.27;1676674;83;21246;-83
2023/04/11 10:14:48;;;;;;;21.12;4.70;;;;;;;17.08;47.55;99527.66;1663995;84;21298;-83
2023/04/11 10:18:16;;;;;;;8.40;4.03;;;;;;;17.11;48.31;99542.36;1643120;86;21152;-83
2023/04/11 10:21:42;;;;;;;10.65;3.67;;;;;;;16.99;47.86;99585.70;1672397;84;21259;-83
2023/04/11 10:24:47;;;;;;;11.45;3.72;;;;;;;16.73;48.82;99563.45;1670847;84;21219;-84
2023/04/11 10:28:02;;;;;;;17.45;4.28;;;;;;;16.60;48.64;99519.43;1670201;84;21222;-83
2023/04/11 10:31:17;;;;;;;8.58;3.85;;;;;;;16.46;50.72;99511.88;1667642;84;21243;-83
2023/04/11 10:34:23;;;;;;;14.43;4.20;;;;;;;16.46;51.03;99492.55;1703279;82;21246;-83
2023/04/11 10:37:42;;;;;;;8.88;3.80;;;;;;;16.42;48.60;99494.64;1671809;84;21921;-84
2023/04/11 10:41:09;;;;;;;10.93;3.27;;;;;;;16.29;48.42;99481.89;1670934;84;22450;-83
2023/04/11 10:44:27;;;;;;;11.15;3.55;;;;;;;16.33;48.33;99476.21;1643999;86;21212;-84
2023/04/11 10:47:33;;;;;;;10.18;3.70;;;;;;;16.31;49.71;99498.50;1634679;87;21267;-82
2023/04/11 10:50:41;;;;;;;14.35;3.98;;;;;;;16.42;49.02;99515.34;1674928;84;21251;-82
2023/04/11 10:53:42;;;;;;;17.12;4.20;;;;;;;16.44;49.08;99491.13;1638992;86;21184;-83
2023/04/11 10:56:59;;;;;;;15.70;4.12;;;;;;;16.57;48.10;99484.03;1647210;84;21202;-84
2023/04/11 11:00:11;;;;;;;11.78;3.95;;;;;;;16.59;48.20;99494.29;1631695;86;21220;-82
2023/04/11 11:03:21;;;;;;;11.00;3.62;;;;;;;16.45;48.56;99474.31;1668087;84;21200;-82
2023/04/11 11:06:28;;;;;;;17.07;4.12;;;;;;;16.41;49.70;99474.48;1665921;84;21250;-82
2023/04/11 11:09:36;;;;;;;11.70;3.90;;;;;;;16.38;49.62;99482.41;1639906;86;21268;-82
2023/04/11 11:12:43;;;;;;;8.65;3.20;;;;;;;16.37;50.34;99471.88;1669664;84;21933;-82
2023/04/11 11:15:56;;;;;;;9.40;3.52;;;;;;;16.47;49.87;99461.69;1662095;86;21207;-82
2023/04/11 11:19:05;;;;;;;15.65;3.98;;;;;;;16.35;48.46;99469.91;1705191;82;21164;-82
2023/04/11 11:22:11;;;;;;;16.25;4.05;;;;;;;16.26;49.52;99465.79;1695607;84;21199;-82
2023/04/11 11:25:17;;;;;;;20.10;4.25;;;;;;;16.27;49.11;99466.92;1702518;83;21236;-83
2023/04/11 11:28:23;;;;;;;14.23;4.17;;;;;;;16.33;49.78;99455.52;1702341;83;21176;-82
2023/04/11 11:31:29;;;;;;;8.03;3.37;;;;;;;16.24;51.00;99452.78;1703806;83;21212;-82
2023/04/11 11:34:40;;;;;;;10.15;3.95;;;;;;;16.12;51.28;99458.77;1671590;84;21251;-82
2023/04/11 11:37:46;;;;;;;16.67;3.92;;;;;;;16.05;50.26;99441.78;1704482;83;21188;-82
2023/04/11 11:40:54;;;;;;;13.20;3.87;;;;;;;15.97;50.13;99442.09;1678964;84;21177;-82
2023/04/11 11:44:00;;;;;;;12.23;3.80;;;;;;;16.06;50.44;99424.16;1693093;84;21186;-82
2023/04/11 11:47:15;;;;;;;11.60;3.92;;;;;;;16.02;50.05;99425.69;1683978;84;21754;-82
2023/04/11 11:50:16;;;;;;;14.85;3.30;;;;;;;16.09;48.67;99412.66;1684447;84;21219;-82
2023/04/11 11:53:22;;;;;;;9.03;4.42;;;;;;;15.97;48.88;99439.34;1669897;84;21758;-81
2023/04/11 11:56:28;;;;;;;21.20;3.65;;;;;;;16.09;48.71;99422.31;1711225;82;21199;-82
2023/04/11 11:59:35;;;;;;;7.87;3.30;;;;;;;16.34;48.23;99418.02;1696460;82;21262;-82
2023/04/11 12:02:44;;;;;;;11.73;3.52;;;;;;;16.24;48.62;99408.63;1696724;83;21168;-81
2023/04/11 12:05:52;;;;;;;12.73;3.47;;;;;;;16.28;49.60;99401.58;1686808;85;21184;-82
2023/04/11 12:08:58;;;;;;;17.75;4.17;;;;;;;16.29;48.68;99412.91;1685846;83;21189;-82
2023/04/11 12:12:04;;;;;;;10.72;3.47;;;;;;;16.57;49.32;99406.20;1694427;83;21207;-82
2023/04/11 12:15:20;;;;;;;18.85;3.65;;;;;;;16.65;48.01;99404.14;1699247;83;21232;-81
2023/04/11 12:18:26;;;;;;;13.03;4.12;;;;;;;16.59;49.14;99386.08;1670976;83;21193;-82
2023/04/11 12:21:26;;;;;;;7.42;3.22;;;;;;;16.56;48.49;99397.61;1678189;83;21177;-81
2023/04/11 12:24:32;;;;;;;13.58;3.30;;;;;;;16.73;48.33;99377.06;1687338;83;22427;-82
2023/04/11 12:27:35;;;;;;;10.68;3.62;;;;;;;16.69;47.79;99382.73;1685616;83;21790;-81
2023/04/11 12:30:41;;;;;;;10.27;3.67;;;;;;;16.79;47.79;99380.78;1689233;83;21221;-81
2023/04/11 12:33:47;;;;;;;11.45;3.22;;;;;;;16.71;48.52;99381.13;1695091;84;21429;-82
2023/04/11 12:36:53;;;;;;;20.80;5.53;;;;;;;16.81;48.80;99382.23;1695862;83;21186;-82
2023/04/11 12:40:00;;;;;;;10.13;3.20;;;;;;;16.91;47.46;99371.97;1695464;84;21254;-82
2023/04/11 12:43:07;;;;;;;14.05;3.55;;;;;;;16.96;47.63;99380.92;1689494;83;21196;-83
2023/04/11 12:46:13;;;;;;;13.50;3.50;;;;;;;16.64;49.03;99362.44;1686571;83;21192;-82
2023/04/11 12:49:19;;;;;;;12.05;3.65;;;;;;;16.80;48.46;99371.44;1689379;84;22198;-81
2023/04/11 12:52:25;;;;;;;13.38;3.85;;;;;;;16.78;49.14;99361.16;1641834;86;21256;-81
2023/04/11 12:55:32;;;;;;;15.15;4.30;;;;;;;16.70;49.01;99358.20;1685123;85;21204;-82
2023/04/11 12:58:38;;;;;;;18.37;3.40;;;;;;;16.64;49.36;99363.83;1685681;85;21217;-81
2023/04/11 13:01:45;;;;;;;10.38;4.15;;;;;;;16.44;49.88;99358.10;1660840;85;21239;-82
2023/04/11 13:04:54;;;;;;;11.03;4.40;;;;;;;16.40;49.89;99367.92;1687749;85;21279;-81
2023/04/11 13:08:00;;;;;;;10.85;3.70;;;;;;;16.39;50.46;99356.59;1698384;83;21283;-83
2023/04/11 13:11:06;;;;;;;10.38;4.12;;;;;;;16.39;50.28;99362.11;1694674;84;21255;-83
2023/04/11 13:14:12;;;;;;;8.63;3.55;;;;;;;16.32;50.25;99354.47;1694914;84;21243;-82
2023/04/11 13:17:19;;;;;;;13.72;3.20;;;;;;;16.44;50.01;99340.70;1694861;84;21295;-82
2023/04/11 13:20:26;;;;;;;10.15;3.12;;;;;;;16.59;49.37;99347.97;1695930;84;21279;-82
2023/04/11 13:23:31;;;;;;;9.50;3.10;;;;;;;16.54;49.11;99343.17;1696520;84;21208;-82
2023/04/11 13:26:38;;;;;;;17.30;3.25;;;;;;;16.50;48.44;99339.20;1697252;84;21140;-82
2023/04/11 13:29:44;;;;;;;20.45;3.67;;;;;;;16.46;48.46;99335.23;1697258;84;21219;-82
2023/04/11 13:32:52;;;;;;;32.05;3.62;;;;;;;16.50;48.23;99342.50;1696943;83;21215;-82
2023/04/11 13:35:58;;;;;;;5.87;2.85;;;;;;;16.66;47.83;99339.59;1697245;84;21207;-82
2023/04/11 13:39:04;;;;;;;14.58;3.17;;;;;;;16.59;47.84;99328.65;1697263;84;21282;-82
2023/04/11 13:42:11;;;;;;;8.03;3.02;;;;;;;16.75;47.74;99332.63;1695676;84;21223;-82
2023/04/11 13:45:18;;;;;;;8.43;3.00;;;;;;;16.76;47.76;99325.52;1696946;84;21199;-82
2023/04/11 13:48:25;;;;;;;8.73;3.02;;;;;;;16.58;48.03;99326.43;1696096;84;21203;-81
2023/04/11 13:51:31;;;;;;;15.20;3.60;;;;;;;16.48;48.85;99323.43;1695475;84;21203;-82
2023/04/11 13:54:37;;;;;;;8.63;3.02;;;;;;;16.84;48.12;99321.02;1695949;84;21227;-82
2023/04/11 13:57:42;;;;;;;8.55;2.87;;;;;;;16.78;47.59;99317.81;1697059;84;21187;-82
2023/04/11 14:00:51;;;;;;;9.60;3.20;;;;;;;16.53;48.47;99329.07;1695774;84;21316;-83
2023/04/11 14:03:57;;;;;;;10.68;2.90;;;;;;;16.61;48.82;99314.09;1696659;84;21794;-82
2023/04/11 14:07:04;;;;;;;12.80;3.65;;;;;;;16.71;48.03;99323.14;1691772;85;21204;-82
2023/04/11 14:10:10;;;;;;;10.65;3.05;;;;;;;16.69;48.44;99315.08;1714368;83;21252;-82
2023/04/11 14:13:16;;;;;;;7.05;3.45;;;;;;;16.68;48.52;99291.32;1712738;83;21866;-82
2023/04/11 14:16:23;;;;;;;10.05;3.55;;;;;;;16.76;48.71;99298.44;1709150;84;21189;-82
2023/04/11 14:19:28;;;;;;;9.50;3.87;;;;;;;16.65;48.90;99300.62;1714064;83;21196;-82
2023/04/11 14:22:34;;;;;;;16.60;3.30;;;;;;;16.49;49.24;99300.27;1709232;84;21189;-82
2023/04/11 14:25:41;;;;;;;15.08;3.25;;;;;;;16.36;49.84;99304.08;1714093;83;21744;-81
2023/04/11 14:28:47;;;;;;;9.65;2.90;;;;;;;16.22;50.27;99305.92;1708060;84;21740;-82